createdAt,value
2017-10-28T00:00:47.366Z,11.15
2017-10-28T00:01:53.194Z,11.15
2017-10-28T00:03:00.136Z,11.13
2017-10-28T00:04:05.959Z,11.15
2017-10-28T00:05:11.990Z,11.09
2017-10-28T00:06:18.052Z,11.02
2017-10-28T00:07:24.109Z,11.07
2017-10-28T00:08:30.140Z,11.05
2017-10-28T00:09:36.187Z,11.10
2017-10-28T00:10:43.163Z,11.10
2017-10-28T00:11:51.028Z,11.16
2017-10-28T00:12:57.078Z,11.05
2017-10-28T00:14:05.413Z,11.08
2017-10-28T00:15:16.487Z,11.01
2017-10-28T00:16:22.510Z,11.06
2017-10-28T00:17:28.576Z,11.12
2017-10-28T00:18:34.610Z,11.10
2017-10-28T00:19:40.731Z,11.10
2017-10-28T00:20:46.773Z,11.06
2017-10-28T00:21:53.062Z,10.96
2017-10-28T00:22:59.128Z,11.10
2017-10-28T00:24:04.853Z,11.04
2017-10-28T00:25:10.692Z,10.99
2017-10-28T00:26:16.549Z,11.00
2017-10-28T00:27:22.610Z,10.99
2017-10-28T00:28:28.665Z,10.87
2017-10-28T00:29:34.701Z,10.93
2017-10-28T00:30:46.203Z,11.00
2017-10-28T00:31:57.632Z,11.05
2017-10-28T00:33:09.385Z,11.13
2017-10-28T00:34:20.081Z,11.16
2017-10-28T00:35:31.602Z,11.13
2017-10-28T00:36:37.260Z,11.05
2017-10-28T00:37:43.339Z,11.05
2017-10-28T00:38:49.356Z,10.94
2017-10-28T00:39:55.409Z,10.97
2017-10-28T00:41:01.466Z,11.01
2017-10-28T00:42:07.180Z,11.05
2017-10-28T00:43:13.201Z,11.02
2017-10-28T00:44:19.220Z,10.99
2017-10-28T00:45:25.242Z,10.95
2017-10-28T00:46:31.253Z,10.90
2017-10-28T00:47:37.332Z,10.88
2017-10-28T00:48:43.408Z,10.84
2017-10-28T00:49:49.428Z,10.88
2017-10-28T00:50:55.286Z,10.97
2017-10-28T00:52:01.328Z,11.01
2017-10-28T00:53:08.352Z,11.08
2017-10-28T00:54:14.372Z,11.06
2017-10-28T00:55:20.417Z,11.07
2017-10-28T00:56:26.734Z,11.07
2017-10-28T00:57:32.485Z,11.01
2017-10-28T00:58:38.544Z,10.99
2017-10-28T00:59:44.567Z,10.98
2017-10-28T01:00:50.224Z,10.91
2017-10-28T01:01:56.251Z,10.93
2017-10-28T01:03:02.301Z,11.01
2017-10-28T01:04:08.158Z,11.10
2017-10-28T01:05:14.205Z,11.06
2017-10-28T01:06:20.231Z,11.13
2017-10-28T01:07:26.293Z,11.06
2017-10-28T01:08:32.332Z,10.99
2017-10-28T01:09:38.378Z,10.96
2017-10-28T01:10:44.428Z,10.90
2017-10-28T01:11:50.442Z,10.88
2017-10-28T01:12:56.489Z,10.85
2017-10-28T01:14:02.511Z,10.89
2017-10-28T01:15:08.536Z,10.88
2017-10-28T01:16:14.568Z,10.84
2017-10-28T01:17:21.503Z,10.93
2017-10-28T01:18:27.530Z,10.93
2017-10-28T01:19:33.190Z,10.94
2017-10-28T01:20:39.263Z,10.91
2017-10-28T01:21:44.985Z,10.86
2017-10-28T01:22:50.861Z,10.91
2017-10-28T01:23:56.890Z,10.94
2017-10-28T01:25:02.944Z,10.94
2017-10-28T01:26:09.084Z,10.89
2017-10-28T01:27:15.239Z,10.86
2017-10-28T01:28:21.273Z,10.79
2017-10-28T01:29:26.949Z,10.72
2017-10-28T01:30:32.998Z,10.69
2017-10-28T01:31:39.116Z,10.72
2017-10-28T01:32:45.216Z,10.80
2017-10-28T01:33:51.242Z,10.82
2017-10-28T01:34:57.306Z,10.83
2017-10-28T01:36:03.332Z,10.93
2017-10-28T01:37:09.408Z,10.95
2017-10-28T01:38:15.452Z,10.91
2017-10-28T01:39:21.482Z,10.85
2017-10-28T01:40:29.741Z,10.94
2017-10-28T01:41:35.798Z,10.91
2017-10-28T01:42:41.848Z,10.90
2017-10-28T01:43:50.174Z,10.82
2017-10-28T01:44:56.208Z,10.70
2017-10-28T01:46:02.237Z,10.73
2017-10-28T01:47:08.873Z,10.77
2017-10-28T01:48:14.908Z,10.81
2017-10-28T01:49:20.930Z,10.87
2017-10-28T01:50:27.194Z,10.89
2017-10-28T01:51:33.231Z,10.94
2017-10-28T01:52:39.348Z,10.94
2017-10-28T01:53:45.435Z,10.91
2017-10-28T01:54:51.451Z,10.90
2017-10-28T01:55:57.470Z,10.99
2017-10-28T01:57:03.514Z,11.03
2017-10-28T01:58:09.562Z,10.96
2017-10-28T01:59:26.161Z,11.00
2017-10-28T02:00:43.636Z,10.93
2017-10-28T02:01:50.950Z,10.89
2017-10-28T02:02:57.024Z,10.99
2017-10-28T02:04:03.071Z,10.87
2017-10-28T02:05:08.893Z,10.80
2017-10-28T02:06:14.929Z,10.76
2017-10-28T02:07:20.986Z,10.70
2017-10-28T02:08:27.017Z,10.71
2017-10-28T02:09:33.045Z,10.71
2017-10-28T02:10:39.072Z,10.71
2017-10-28T02:11:45.203Z,10.64
2017-10-28T02:12:51.261Z,10.65
2017-10-28T02:13:57.330Z,10.61
2017-10-28T02:15:03.354Z,10.70
2017-10-28T02:16:09.396Z,10.70
2017-10-28T02:17:15.450Z,10.80
2017-10-28T02:18:21.490Z,10.83
2017-10-28T02:19:27.547Z,10.80
2017-10-28T02:20:33.591Z,10.83
2017-10-28T02:21:39.321Z,10.79
2017-10-28T02:22:45.399Z,10.72
2017-10-28T02:23:51.428Z,10.70
2017-10-28T02:24:57.525Z,10.73
2017-10-28T02:26:03.578Z,10.70
2017-10-28T02:27:09.626Z,10.71
2017-10-28T02:28:15.688Z,10.64
2017-10-28T02:29:21.839Z,10.64
2017-10-28T02:30:27.913Z,10.67
2017-10-28T02:31:33.967Z,10.62
2017-10-28T02:32:40.229Z,10.56
2017-10-28T02:33:46.287Z,10.59
2017-10-28T02:34:52.321Z,10.69
2017-10-28T02:35:58.430Z,10.71
2017-10-28T02:37:04.484Z,10.71
2017-10-28T02:38:10.730Z,10.70
2017-10-28T02:39:16.765Z,10.74
2017-10-28T02:40:22.818Z,10.64
2017-10-28T02:41:28.835Z,10.63
2017-10-28T02:42:35.036Z,10.75
2017-10-28T02:43:41.066Z,10.69
2017-10-28T02:44:47.116Z,10.75
2017-10-28T02:45:53.149Z,10.72
2017-10-28T02:46:59.193Z,10.69
2017-10-28T02:48:05.273Z,10.70
2017-10-28T02:49:11.311Z,10.67
2017-10-28T02:50:17.379Z,10.65
2017-10-28T02:51:23.400Z,10.61
2017-10-28T02:52:32.184Z,10.68
2017-10-28T02:53:38.241Z,10.70
2017-10-28T02:54:44.277Z,10.66
2017-10-28T02:55:50.319Z,10.64
2017-10-28T02:56:56.348Z,10.62
2017-10-28T02:58:02.447Z,10.60
2017-10-28T02:59:08.487Z,10.68
2017-10-28T03:00:13.817Z,10.70
2017-10-28T03:01:19.256Z,10.80
2017-10-28T03:02:25.272Z,10.81
2017-10-28T03:03:30.968Z,10.80
2017-10-28T03:04:37.028Z,10.74
2017-10-28T03:05:43.323Z,10.65
2017-10-28T03:06:49.945Z,10.64
2017-10-28T03:07:55.666Z,10.61
2017-10-28T03:09:01.769Z,10.63
2017-10-28T03:10:07.891Z,10.70
2017-10-28T03:11:13.195Z,10.69
2017-10-28T03:12:19.237Z,10.70
2017-10-28T03:13:25.278Z,10.71
2017-10-28T03:14:30.981Z,10.69
2017-10-28T03:15:36.990Z,10.65
2017-10-28T03:16:43.062Z,10.63
2017-10-28T03:17:49.117Z,10.64
2017-10-28T03:18:55.234Z,10.64
2017-10-28T03:20:01.226Z,10.74
2017-10-28T03:21:07.287Z,10.87
2017-10-28T03:22:14.901Z,10.81
2017-10-28T03:23:22.210Z,10.80
2017-10-28T03:24:28.281Z,10.76
2017-10-28T03:25:34.357Z,10.85
2017-10-28T03:26:40.445Z,10.78
2017-10-28T03:27:46.804Z,10.75
2017-10-28T03:28:52.874Z,10.74
2017-10-28T03:29:58.534Z,10.75
2017-10-28T03:31:04.555Z,10.73
2017-10-28T03:32:10.600Z,10.70
2017-10-28T03:33:16.650Z,10.72
2017-10-28T03:34:22.670Z,10.80
2017-10-28T03:35:28.685Z,10.67
2017-10-28T03:36:34.705Z,10.65
2017-10-28T03:37:40.724Z,10.65
2017-10-28T03:38:46.810Z,10.72
2017-10-28T03:39:52.841Z,10.71
2017-10-28T03:40:58.888Z,10.64
2017-10-28T03:42:04.929Z,10.67
2017-10-28T03:43:15.406Z,10.65
2017-10-28T03:44:24.885Z,10.67
2017-10-28T03:45:30.935Z,10.70
2017-10-28T03:46:36.977Z,10.74
2017-10-28T03:47:43.063Z,10.71
2017-10-28T03:48:49.140Z,10.72
2017-10-28T03:49:55.205Z,10.62
2017-10-28T03:51:01.263Z,10.60
2017-10-28T03:52:07.290Z,10.59
2017-10-28T03:53:13.359Z,10.66
2017-10-28T03:54:19.407Z,10.75
2017-10-28T03:55:25.431Z,10.68
2017-10-28T03:56:31.469Z,10.65
2017-10-28T03:57:38.314Z,10.61
2017-10-28T03:58:44.382Z,10.67
2017-10-28T03:59:50.407Z,10.63
2017-10-28T04:00:58.539Z,10.68
2017-10-28T04:02:11.081Z,10.70
2017-10-28T04:03:18.051Z,10.68
2017-10-28T04:04:24.094Z,10.61
2017-10-28T04:05:30.105Z,10.65
2017-10-28T04:06:36.114Z,10.66
2017-10-28T04:07:42.186Z,10.73
2017-10-28T04:08:48.095Z,10.71
2017-10-28T04:09:54.159Z,10.73
2017-10-28T04:11:01.818Z,10.68
2017-10-28T04:12:07.865Z,10.66
2017-10-28T04:13:13.881Z,10.68
2017-10-28T04:14:19.938Z,10.75
2017-10-28T04:15:26.017Z,10.67
2017-10-28T04:16:32.059Z,10.63
2017-10-28T04:17:37.945Z,10.73
2017-10-28T04:18:44.055Z,10.67
2017-10-28T04:19:52.397Z,10.71
2017-10-28T04:20:58.447Z,10.72
2017-10-28T04:22:04.482Z,10.70
2017-10-28T04:23:10.526Z,10.73
2017-10-28T04:24:16.579Z,10.75
2017-10-28T04:25:22.894Z,10.82
2017-10-28T04:26:28.913Z,10.80
2017-10-28T04:27:34.936Z,10.75
2017-10-28T04:28:40.966Z,10.70
2017-10-28T04:29:47.021Z,10.75
2017-10-28T04:30:53.022Z,10.69
2017-10-28T04:31:59.080Z,10.69
2017-10-28T04:33:04.754Z,10.70
2017-10-28T04:34:10.446Z,10.73
2017-10-28T04:35:16.130Z,10.75
2017-10-28T04:36:27.112Z,10.81
2017-10-28T04:37:33.153Z,10.84
2017-10-28T04:38:39.181Z,10.83
2017-10-28T04:39:44.876Z,10.82
2017-10-28T04:40:50.915Z,10.76
2017-10-28T04:41:56.987Z,10.80
2017-10-28T04:43:03.021Z,10.81
2017-10-28T04:44:09.028Z,10.84
2017-10-28T04:45:15.442Z,10.82
2017-10-28T04:46:21.499Z,10.84
2017-10-28T04:47:27.528Z,10.83
2017-10-28T04:48:33.567Z,10.80
2017-10-28T04:49:39.604Z,10.71
2017-10-28T04:50:45.623Z,10.69
2017-10-28T04:51:51.661Z,10.59
2017-10-28T04:52:57.719Z,10.62
2017-10-28T04:54:03.758Z,10.56
2017-10-28T04:55:09.803Z,10.48
2017-10-28T04:56:15.831Z,10.57
2017-10-28T04:57:21.868Z,10.61
2017-10-28T04:58:28.591Z,10.69
2017-10-28T04:59:35.457Z,10.74
2017-10-28T05:00:41.319Z,10.73
2017-10-28T05:01:47.369Z,10.66
2017-10-28T05:02:53.405Z,10.55
2017-10-28T05:03:59.477Z,10.55
2017-10-28T05:05:05.537Z,10.60
2017-10-28T05:06:18.328Z,10.59
2017-10-28T05:07:27.601Z,10.63
2017-10-28T05:08:33.631Z,10.59
2017-10-28T05:09:39.694Z,10.54
2017-10-28T05:10:45.749Z,10.45
2017-10-28T05:11:51.412Z,10.45
2017-10-28T05:12:58.267Z,10.41
2017-10-28T05:14:03.929Z,10.47
2017-10-28T05:15:09.982Z,10.39
2017-10-28T05:16:15.638Z,10.39
2017-10-28T05:17:24.680Z,10.37
2017-10-28T05:18:30.799Z,10.44
2017-10-28T05:19:36.849Z,10.41
2017-10-28T05:20:42.891Z,10.39
2017-10-28T05:21:52.452Z,10.43
2017-10-28T05:22:58.500Z,10.48
2017-10-28T05:24:04.529Z,10.41
2017-10-28T05:25:10.038Z,10.35
2017-10-28T05:26:19.050Z,10.45
2017-10-28T05:27:26.654Z,10.45
2017-10-28T05:28:32.666Z,10.42
2017-10-28T05:29:38.863Z,10.34
2017-10-28T05:30:44.912Z,10.43
2017-10-28T05:31:50.963Z,10.38
2017-10-28T05:32:56.985Z,10.37
2017-10-28T05:34:03.031Z,10.52
2017-10-28T05:35:09.099Z,10.49
2017-10-28T05:36:15.308Z,10.47
2017-10-28T05:37:21.357Z,10.46
2017-10-28T05:38:27.387Z,10.49
2017-10-28T05:39:33.401Z,10.47
2017-10-28T05:40:39.465Z,10.44
2017-10-28T05:41:44.790Z,10.51
2017-10-28T05:42:50.436Z,10.49
2017-10-28T05:43:56.463Z,10.48
2017-10-28T05:45:02.521Z,10.42
2017-10-28T05:46:07.842Z,10.40
2017-10-28T05:47:12.968Z,10.42
2017-10-28T05:48:18.829Z,10.33
2017-10-28T05:49:24.850Z,10.32
2017-10-28T05:50:30.668Z,10.32
2017-10-28T05:51:36.342Z,10.30
2017-10-28T05:52:42.001Z,10.37
2017-10-28T05:53:48.109Z,10.38
2017-10-28T05:54:54.137Z,10.42
2017-10-28T05:56:00.217Z,10.45
2017-10-28T05:57:05.546Z,10.39
2017-10-28T05:58:11.236Z,10.39
2017-10-28T05:59:17.261Z,10.37
2017-10-28T06:00:23.335Z,10.40
2017-10-28T06:01:28.464Z,10.38
2017-10-28T06:02:34.490Z,10.39
2017-10-28T06:03:43.430Z,10.36
2017-10-28T06:04:52.940Z,10.37
2017-10-28T06:05:59.039Z,10.33
2017-10-28T06:07:05.063Z,10.32
2017-10-28T06:08:11.096Z,10.34
2017-10-28T06:09:17.133Z,10.36
2017-10-28T06:10:23.227Z,10.36
2017-10-28T06:11:29.286Z,10.33
2017-10-28T06:12:37.643Z,10.40
2017-10-28T06:13:43.703Z,10.44
2017-10-28T06:14:49.768Z,10.46
2017-10-28T06:15:55.839Z,10.44
2017-10-28T06:17:01.891Z,10.41
2017-10-28T06:18:07.949Z,10.40
2017-10-28T06:19:14.003Z,10.38
2017-10-28T06:20:20.081Z,10.31
2017-10-28T06:21:26.425Z,10.32
2017-10-28T06:22:32.464Z,10.29
2017-10-28T06:23:38.547Z,10.29
2017-10-28T06:24:44.690Z,10.25
2017-10-28T06:25:50.752Z,10.24
2017-10-28T06:26:57.774Z,10.21
2017-10-28T06:28:03.461Z,10.29
2017-10-28T06:29:09.535Z,10.30
2017-10-28T06:30:15.701Z,10.29
2017-10-28T06:31:21.761Z,10.21
2017-10-28T06:32:27.808Z,10.25
2017-10-28T06:33:33.869Z,10.18
2017-10-28T06:34:39.916Z,10.23
2017-10-28T06:35:46.017Z,10.28
2017-10-28T06:36:52.061Z,10.37
2017-10-28T06:37:58.089Z,10.39
2017-10-28T06:39:03.745Z,10.34
2017-10-28T06:40:09.882Z,10.30
2017-10-28T06:41:15.951Z,10.39
2017-10-28T06:42:22.596Z,10.40
2017-10-28T06:43:28.802Z,10.41
2017-10-28T06:44:35.375Z,10.41
2017-10-28T06:45:41.907Z,10.44
2017-10-28T06:46:48.548Z,10.49
2017-10-28T06:47:55.005Z,10.52
2017-10-28T06:49:01.538Z,10.47
2017-10-28T06:50:08.704Z,10.42
2017-10-28T06:51:15.602Z,10.37
2017-10-28T06:52:22.317Z,10.40
2017-10-28T06:53:28.886Z,10.37
2017-10-28T06:54:35.269Z,10.46
2017-10-28T06:55:42.259Z,10.40
2017-10-28T06:56:48.801Z,10.39
2017-10-28T06:57:55.273Z,10.30
2017-10-28T06:59:03.624Z,10.39
2017-10-28T07:00:10.351Z,10.45
2017-10-28T07:01:16.574Z,10.47
2017-10-28T07:02:23.330Z,10.49
2017-10-28T07:03:29.789Z,10.51
2017-10-28T07:04:36.410Z,10.55
2017-10-28T07:05:42.845Z,10.54
2017-10-28T07:06:50.189Z,10.59
2017-10-28T07:07:56.654Z,10.51
2017-10-28T07:09:04.892Z,10.55
2017-10-28T07:10:11.270Z,10.63
2017-10-28T07:11:16.647Z,10.62
2017-10-28T07:12:24.497Z,10.63
2017-10-28T07:13:30.974Z,10.73
2017-10-28T07:14:37.620Z,10.73
2017-10-28T07:15:44.055Z,10.74
2017-10-28T07:16:50.595Z,10.70
2017-10-28T07:17:57.184Z,10.67
2017-10-28T07:19:02.889Z,10.65
2017-10-28T07:20:08.953Z,10.61
2017-10-28T07:21:15.242Z,10.62
2017-10-28T07:22:21.452Z,10.56
2017-10-28T07:23:28.023Z,10.62
2017-10-28T07:24:34.384Z,10.64
2017-10-28T07:25:41.135Z,10.62
2017-10-28T07:26:48.164Z,10.60
2017-10-28T07:27:54.498Z,10.66
2017-10-28T07:29:01.061Z,10.70
2017-10-28T07:30:07.601Z,10.69
2017-10-28T07:31:14.319Z,10.66
2017-10-28T07:32:23.089Z,10.64
2017-10-28T07:33:31.934Z,10.55
2017-10-28T07:34:39.018Z,10.57
2017-10-28T07:35:45.772Z,10.60
2017-10-28T07:36:52.509Z,10.63
2017-10-28T07:37:59.045Z,10.63
2017-10-28T07:39:04.534Z,10.55
2017-10-28T07:40:11.511Z,10.56
2017-10-28T07:41:18.158Z,10.60
2017-10-28T07:42:26.695Z,10.65
2017-10-28T07:43:33.130Z,10.60
2017-10-28T07:44:39.857Z,10.66
2017-10-28T07:45:46.345Z,10.67
2017-10-28T07:46:52.609Z,10.70
2017-10-28T07:47:59.314Z,10.68
2017-10-28T07:49:05.871Z,10.68
2017-10-28T07:50:13.789Z,10.68
2017-10-28T07:51:20.461Z,10.70
2017-10-28T07:52:27.857Z,10.70
2017-10-28T07:53:34.781Z,10.73
2017-10-28T07:54:41.418Z,10.68
2017-10-28T07:55:53.456Z,10.69
2017-10-28T07:56:59.805Z,10.69
2017-10-28T07:58:07.266Z,10.66
2017-10-28T07:59:13.735Z,10.57
2017-10-28T08:00:20.913Z,10.59
2017-10-28T08:01:27.849Z,10.62
2017-10-28T08:02:34.330Z,10.65
2017-10-28T08:03:46.473Z,10.67
2017-10-28T08:04:55.139Z,10.68
2017-10-28T08:06:06.223Z,10.67
2017-10-28T08:07:17.590Z,10.64
2017-10-28T08:08:24.560Z,10.66
2017-10-28T08:09:30.590Z,10.64
2017-10-28T08:10:36.643Z,10.66
2017-10-28T08:11:42.658Z,10.67
2017-10-28T08:12:48.722Z,10.58
2017-10-28T08:13:55.001Z,10.63
2017-10-28T08:15:02.198Z,10.67
2017-10-28T08:16:08.286Z,10.73
2017-10-28T08:17:13.636Z,10.69
2017-10-28T08:18:20.057Z,10.68
2017-10-28T08:19:26.181Z,10.70
2017-10-28T08:20:32.251Z,10.71
2017-10-28T08:21:38.255Z,10.75
2017-10-28T08:22:44.329Z,10.71
2017-10-28T08:23:50.358Z,10.72
2017-10-28T08:24:56.412Z,10.75
2017-10-28T08:26:02.518Z,10.73
2017-10-28T08:27:08.564Z,10.68
2017-10-28T08:28:14.704Z,10.73
2017-10-28T08:29:20.746Z,10.83
2017-10-28T08:30:26.776Z,10.83
2017-10-28T08:31:32.801Z,10.86
2017-10-28T08:32:38.871Z,10.88
2017-10-28T08:33:45.436Z,10.94
2017-10-28T08:34:51.494Z,10.93
2017-10-28T08:35:57.366Z,10.85
2017-10-28T08:37:03.478Z,10.87
2017-10-28T08:38:09.533Z,10.83
2017-10-28T08:39:15.597Z,10.82
2017-10-28T08:40:21.616Z,10.82
2017-10-28T08:41:27.645Z,10.83
2017-10-28T08:42:33.470Z,10.83
2017-10-28T08:43:39.512Z,10.86
2017-10-28T08:44:45.209Z,10.84
2017-10-28T08:45:51.236Z,10.80
2017-10-28T08:46:57.264Z,10.84
2017-10-28T08:48:03.308Z,10.87
2017-10-28T08:49:08.968Z,10.85
2017-10-28T08:50:15.043Z,10.92
2017-10-28T08:51:21.114Z,10.92
2017-10-28T08:52:27.161Z,10.91
2017-10-28T08:53:33.222Z,10.89
2017-10-28T08:54:39.310Z,10.94
2017-10-28T08:55:45.874Z,10.98
2017-10-28T08:56:51.964Z,10.96
2017-10-28T08:57:58.071Z,11.00
2017-10-28T08:59:04.148Z,11.00
2017-10-28T09:00:10.022Z,11.02
2017-10-28T09:01:15.873Z,10.99
2017-10-28T09:02:21.702Z,11.11
2017-10-28T09:03:27.755Z,11.10
2017-10-28T09:04:33.855Z,11.19
2017-10-28T09:05:40.107Z,11.24
2017-10-28T09:06:46.145Z,11.31
2017-10-28T09:07:52.176Z,11.34
2017-10-28T09:08:58.226Z,11.34
2017-10-28T09:10:03.937Z,11.34
2017-10-28T09:11:10.012Z,11.36
2017-10-28T09:12:15.672Z,11.43
2017-10-28T09:13:21.549Z,11.40
2017-10-28T09:14:27.993Z,11.41
2017-10-28T09:15:34.115Z,11.46
2017-10-28T09:16:40.709Z,11.52
2017-10-28T09:17:46.789Z,11.46
2017-10-28T09:18:56.042Z,11.45
2017-10-28T09:20:01.962Z,11.44
2017-10-28T09:21:08.031Z,11.51
2017-10-28T09:22:13.753Z,11.47
2017-10-28T09:26:32.387Z,11.46
2017-10-28T09:27:38.521Z,11.39
2017-10-28T09:28:45.412Z,11.41
2017-10-28T09:29:51.507Z,11.43
2017-10-28T09:32:38.262Z,11.44
2017-10-28T09:33:44.386Z,11.44
2017-10-28T09:34:50.614Z,11.47
2017-10-28T09:35:57.468Z,11.54
2017-10-28T09:37:06.113Z,11.43
2017-10-28T09:38:16.205Z,11.37
2017-10-28T09:39:25.390Z,11.33
2017-10-28T09:40:33.558Z,11.39
2017-10-28T09:41:40.288Z,11.45
2017-10-28T09:42:47.697Z,11.43
2017-10-28T09:43:57.263Z,11.43
2017-10-28T09:45:04.970Z,11.49
2017-10-28T09:46:12.219Z,11.44
2017-10-28T09:47:18.067Z,11.53
2017-10-28T09:48:24.102Z,11.56
2017-10-28T09:49:30.158Z,11.47
2017-10-28T09:50:36.214Z,11.30
2017-10-28T09:51:42.297Z,11.32
2017-10-28T09:52:48.347Z,11.33
2017-10-28T09:53:54.446Z,11.35
2017-10-28T09:55:00.307Z,11.33
2017-10-28T09:56:06.369Z,11.29
2017-10-28T09:57:13.218Z,11.28
2017-10-28T09:58:20.598Z,11.35
2017-10-28T09:59:27.611Z,11.37
2017-10-28T10:00:33.662Z,11.35
2017-10-28T10:01:40.319Z,11.32
2017-10-28T10:02:48.644Z,11.44
2017-10-28T10:03:54.744Z,11.35
2017-10-28T10:05:00.791Z,11.26
2017-10-28T10:06:06.863Z,11.26
2017-10-28T10:07:12.912Z,11.27
2017-10-28T10:08:18.962Z,11.37
2017-10-28T10:09:25.071Z,11.38
2017-10-28T10:10:31.117Z,11.41
2017-10-28T10:11:37.246Z,11.38
2017-10-28T10:12:43.345Z,11.41
2017-10-28T10:13:49.405Z,11.37
2017-10-28T10:14:55.466Z,11.37
2017-10-28T10:16:01.517Z,11.40
2017-10-28T10:17:07.560Z,11.44
2017-10-28T10:18:13.679Z,11.40
2017-10-28T10:19:28.304Z,11.40
2017-10-28T10:20:34.392Z,11.37
2017-10-28T10:21:42.671Z,11.41
2017-10-28T10:22:48.704Z,11.45
2017-10-28T10:23:54.747Z,11.39
2017-10-28T10:25:00.790Z,11.37
2017-10-28T10:26:06.863Z,11.49
2017-10-28T10:27:12.899Z,11.43
2017-10-28T10:28:19.235Z,11.44
2017-10-28T10:29:25.480Z,11.41
2017-10-28T10:30:31.845Z,11.42
2017-10-28T10:31:38.202Z,11.43
2017-10-28T10:32:44.240Z,11.46
2017-10-28T10:33:50.291Z,11.48
2017-10-28T10:34:56.319Z,11.54
2017-10-28T10:36:02.650Z,11.59
2017-10-28T10:37:08.775Z,11.56
2017-10-28T10:38:14.878Z,11.58
2017-10-28T10:39:20.912Z,11.57
2017-10-28T10:40:27.001Z,11.56
2017-10-28T10:41:33.057Z,11.55
2017-10-28T10:42:39.096Z,11.57
2017-10-28T10:43:45.200Z,11.60
2017-10-28T10:44:51.263Z,11.55
2017-10-28T10:45:57.790Z,11.58
2017-10-28T10:47:03.810Z,11.61
2017-10-28T10:48:09.887Z,11.58
2017-10-28T10:49:18.831Z,11.59
2017-10-28T10:50:24.728Z,11.60
2017-10-28T10:51:30.802Z,11.72
2017-10-28T10:52:37.008Z,11.73
2017-10-28T10:53:46.490Z,11.72
2017-10-28T10:54:58.269Z,11.66
2017-10-28T10:57:48.512Z,11.73
2017-10-28T10:58:55.737Z,11.75
2017-10-28T11:00:04.306Z,11.83
2017-10-28T11:02:52.473Z,11.79
2017-10-28T11:03:59.587Z,11.79
2017-10-28T11:05:06.013Z,11.81
2017-10-28T11:06:12.480Z,11.86
2017-10-28T11:07:19.265Z,11.81
2017-10-28T11:08:26.243Z,11.76
2017-10-28T11:09:32.442Z,11.69
2017-10-28T11:10:39.196Z,11.67
2017-10-28T11:11:45.438Z,11.69
2017-10-28T11:12:52.909Z,11.66
2017-10-28T11:13:59.723Z,11.70
2017-10-28T11:15:05.502Z,11.66
2017-10-28T11:16:11.612Z,11.74
2017-10-28T11:17:18.433Z,11.77
2017-10-28T11:18:26.614Z,11.72
2017-10-28T11:19:33.217Z,11.76
2017-10-28T11:20:39.310Z,11.77
2017-10-28T11:21:51.119Z,11.75
2017-10-28T11:22:57.799Z,11.75
2017-10-28T11:24:04.177Z,11.71
2017-10-28T11:25:10.388Z,11.78
2017-10-28T11:26:17.169Z,11.85
2017-10-28T11:27:23.584Z,11.79
2017-10-28T11:28:30.018Z,11.77
2017-10-28T11:29:36.095Z,11.85
2017-10-28T11:30:42.130Z,11.85
2017-10-28T11:31:50.165Z,11.82
2017-10-28T11:32:56.279Z,11.74
2017-10-28T11:34:03.129Z,11.72
2017-10-28T11:35:10.159Z,11.68
2017-10-28T11:36:18.266Z,11.76
2017-10-28T11:37:24.686Z,11.77
2017-10-28T11:38:31.272Z,11.72
2017-10-28T11:39:37.365Z,11.70
2017-10-28T11:40:44.122Z,11.76
2017-10-28T11:41:50.954Z,11.73
2017-10-28T11:43:02.831Z,11.69
2017-10-28T11:44:09.433Z,11.72
2017-10-28T11:45:16.305Z,11.82
2017-10-28T11:46:23.220Z,11.82
2017-10-28T11:49:30.126Z,11.67
2017-10-28T11:50:45.429Z,11.64
2017-10-28T11:53:54.015Z,11.68
2017-10-28T11:55:07.699Z,11.71
2017-10-28T11:56:13.804Z,11.69
2017-10-28T11:57:20.043Z,11.67
2017-10-28T12:09:24.122Z,11.62
2017-10-28T12:10:30.376Z,11.61
2017-10-28T12:11:36.474Z,11.66
2017-10-28T12:12:42.547Z,11.66
2017-10-28T12:13:48.599Z,11.74
2017-10-28T12:14:54.675Z,11.78
2017-10-28T12:16:00.979Z,11.85
2017-10-28T12:17:06.915Z,11.82
2017-10-28T12:18:12.997Z,11.83
2017-10-28T12:19:19.086Z,11.84
2017-10-28T12:20:25.158Z,11.81
2017-10-28T12:21:31.273Z,11.87
2017-10-28T12:22:37.333Z,11.88
2017-10-28T12:23:44.158Z,11.94
2017-10-28T12:24:54.062Z,11.94
2017-10-28T12:26:01.364Z,12.01
2017-10-28T12:27:08.830Z,11.99
2017-10-28T12:28:15.467Z,11.97
2017-10-28T12:29:21.698Z,12.00
2017-10-28T12:30:27.745Z,12.03
2017-10-28T12:31:33.840Z,11.95
2017-10-28T12:32:39.923Z,11.96
2017-10-28T12:33:45.977Z,11.95
2017-10-28T12:34:52.028Z,11.92
2017-10-28T12:35:58.118Z,11.95
2017-10-28T12:37:04.193Z,11.99
2017-10-28T12:38:10.859Z,12.01
2017-10-28T12:39:16.899Z,12.12
2017-10-28T12:40:22.918Z,12.03
2017-10-28T12:41:28.997Z,12.12
2017-10-28T12:42:35.094Z,12.08
2017-10-28T12:43:41.164Z,12.11
2017-10-28T12:44:47.208Z,12.14
2017-10-28T12:45:55.450Z,12.07
2017-10-28T12:47:02.512Z,12.14
2017-10-28T12:48:08.601Z,12.17
2017-10-28T12:49:14.714Z,12.03
2017-10-28T12:50:20.768Z,12.01
2017-10-28T12:51:26.861Z,11.99
2017-10-28T12:52:32.954Z,11.98
2017-10-28T12:53:39.041Z,11.99
2017-10-28T12:54:45.094Z,12.07
2017-10-28T12:55:51.154Z,12.07
2017-10-28T12:56:57.236Z,12.04
2017-10-28T12:58:03.339Z,12.08
2017-10-28T12:59:09.403Z,12.07
2017-10-28T13:00:15.266Z,12.07
2017-10-28T13:01:21.344Z,12.11
2017-10-28T13:02:27.412Z,12.18
2017-10-28T13:03:33.498Z,12.12
2017-10-28T13:04:39.564Z,12.16
2017-10-28T13:05:45.665Z,12.18
2017-10-28T13:06:59.704Z,12.17
2017-10-28T13:08:05.793Z,12.13
2017-10-28T13:09:11.920Z,12.04
2017-10-28T13:10:18.017Z,12.03
2017-10-28T13:11:24.121Z,12.07
2017-10-28T13:12:30.239Z,12.02
2017-10-28T13:13:36.316Z,12.05
2017-10-28T13:14:42.383Z,12.07
2017-10-28T13:15:48.456Z,12.03
2017-10-28T13:16:54.541Z,12.00
2017-10-28T13:18:00.652Z,11.98
2017-10-28T13:19:07.099Z,12.01
2017-10-28T13:20:13.175Z,11.98
2017-10-28T13:21:19.352Z,11.96
2017-10-28T13:22:25.469Z,12.02
2017-10-28T13:23:31.595Z,11.96
2017-10-28T13:24:39.721Z,11.98
2017-10-28T13:25:45.858Z,11.87
2017-10-28T13:26:52.521Z,11.84
2017-10-28T13:27:59.431Z,11.89
2017-10-28T13:29:08.574Z,11.95
2017-10-28T13:30:14.683Z,11.93
2017-10-28T13:31:20.765Z,11.94
2017-10-28T13:32:26.820Z,11.95
2017-10-28T13:33:32.929Z,12.03
2017-10-28T13:34:39.021Z,11.95
2017-10-28T13:35:45.099Z,11.91
2017-10-28T13:36:51.228Z,11.92
2017-10-28T13:37:57.718Z,11.81
2017-10-28T13:39:03.457Z,11.92
2017-10-28T13:40:09.558Z,11.84
2017-10-28T13:41:15.651Z,11.82
2017-10-28T13:42:21.731Z,11.81
2017-10-28T13:43:27.823Z,11.80
2017-10-28T13:44:33.922Z,11.81
2017-10-28T13:45:40.008Z,11.85
2017-10-28T13:46:46.117Z,11.89
2017-10-28T13:47:52.200Z,11.83
2017-10-28T13:48:58.443Z,11.87
2017-10-28T13:50:06.354Z,11.88
2017-10-28T13:51:12.475Z,11.86
2017-10-28T13:52:17.809Z,11.89
2017-10-28T13:53:23.904Z,11.84
2017-10-28T13:54:30.030Z,11.84
2017-10-28T13:55:38.001Z,11.86
2017-10-28T13:56:44.176Z,11.87
2017-10-28T13:57:49.910Z,11.90
2017-10-28T13:58:56.016Z,11.90
2017-10-28T14:00:05.544Z,11.92
2017-10-28T14:01:11.613Z,11.90
2017-10-28T14:02:17.715Z,11.82
2017-10-28T14:03:23.824Z,11.81
2017-10-28T14:04:29.947Z,11.78
2017-10-28T14:05:36.063Z,11.77
2017-10-28T14:06:42.194Z,11.78
2017-10-28T14:07:48.233Z,11.89
2017-10-28T14:08:54.307Z,11.85
2017-10-28T14:10:06.403Z,11.79
2017-10-28T14:11:14.179Z,11.81
2017-10-28T14:12:20.233Z,11.79
2017-10-28T14:13:26.267Z,11.70
2017-10-28T14:14:32.344Z,11.74
2017-10-28T14:15:38.402Z,11.77
2017-10-28T14:16:44.421Z,11.81
2017-10-28T14:17:50.470Z,11.87
2017-10-28T14:18:56.493Z,11.83
2017-10-28T14:20:02.626Z,11.85
2017-10-28T14:21:08.680Z,11.85
2017-10-28T14:22:14.723Z,11.83
2017-10-28T14:23:20.766Z,11.89
2017-10-28T14:24:26.947Z,11.85
2017-10-28T14:25:33.084Z,11.84
2017-10-28T14:26:39.232Z,11.82
2017-10-28T14:27:45.306Z,11.81
2017-10-28T14:28:51.412Z,11.75
2017-10-28T14:29:57.551Z,11.75
2017-10-28T14:31:04.724Z,11.73
2017-10-28T14:32:10.782Z,11.79
2017-10-28T14:33:16.810Z,11.77
2017-10-28T14:34:22.864Z,11.79
2017-10-28T14:35:28.959Z,11.83
2017-10-28T14:36:35.033Z,11.75
2017-10-28T14:37:41.090Z,11.71
2017-10-28T14:38:47.148Z,11.73
2017-10-28T14:39:53.259Z,11.74